sensor_id;sensor_type;location;lat;lon;timestamp;P1;durP1;ratioP1;P2;durP2;ratioP2
37517;SDS011;23366;52.498;13.446;2022-11-25T00:01:14;36.70;;;17.95;;
37517;SDS011;23366;52.498;13.446;2022-11-25T00:03:48;34.53;;;14.25;;
37517;SDS011;23366;52.498;13.446;2022-11-25T00:08:52;36.08;;;16.50;;
37517;SDS011;23366;52.498;13.446;2022-11-25T00:11:20;39.55;;;16.63;;
37517;SDS011;23366;52.498;13.446;2022-11-25T00:13:46;34.42;;;17.70;;
37517;SDS011;23366;52.498;13.446;2022-11-25T00:16:13;43.63;;;18.13;;
37517;SDS011;23366;52.498;13.446;2022-11-25T00:18:48;30.65;;;17.40;;
37517;SDS011;23366;52.498;13.446;2022-11-25T00:21:16;32.83;;;18.25;;
37517;SDS011;23366;52.498;13.446;2022-11-25T00:23:49;33.42;;;16.33;;
37517;SDS011;23366;52.498;13.446;2022-11-25T00:26:20;30.95;;;16.30;;
37517;SDS011;23366;52.498;13.446;2022-11-25T00:28:46;36.33;;;15.95;;
37517;SDS011;23366;52.498;13.446;2022-11-25T00:31:17;36.90;;;18.27;;
37517;SDS011;23366;52.498;13.446;2022-11-25T00:33:44;35.88;;;15.50;;
37517;SDS011;23366;52.498;13.446;2022-11-25T00:36:23;29.33;;;14.18;;
37517;SDS011;23366;52.498;13.446;2022-11-25T00:38:55;37.17;;;17.63;;
37517;SDS011;23366;52.498;13.446;2022-11-25T00:41:25;37.15;;;13.80;;
37517;SDS011;23366;52.498;13.446;2022-11-25T00:44:11;35.35;;;16.40;;
37517;SDS011;23366;52.498;13.446;2022-11-25T00:46:57;37.92;;;17.10;;
37517;SDS011;23366;52.498;13.446;2022-11-25T00:49:23;38.47;;;17.02;;
37517;SDS011;23366;52.498;13.446;2022-11-25T00:51:49;32.05;;;15.13;;
37517;SDS011;23366;52.498;13.446;2022-11-25T00:54:15;33.85;;;17.40;;
37517;SDS011;23366;52.498;13.446;2022-11-25T00:56:40;34.72;;;14.38;;
37517;SDS011;23366;52.498;13.446;2022-11-25T00:59:06;32.17;;;14.02;;
37517;SDS011;23366;52.498;13.446;2022-11-25T01:01:33;28.33;;;13.90;;
37517;SDS011;23366;52.498;13.446;2022-11-25T01:03:59;32.00;;;14.73;;
37517;SDS011;23366;52.498;13.446;2022-11-25T01:06:24;35.00;;;15.63;;
37517;SDS011;23366;52.498;13.446;2022-11-25T01:08:50;37.22;;;16.30;;
37517;SDS011;23366;52.498;13.446;2022-11-25T01:11:17;31.42;;;13.63;;
37517;SDS011;23366;52.498;13.446;2022-11-25T01:13:44;35.85;;;16.50;;
37517;SDS011;23366;52.498;13.446;2022-11-25T01:16:11;37.80;;;16.60;;
37517;SDS011;23366;52.498;13.446;2022-11-25T01:18:39;36.65;;;16.88;;
37517;SDS011;23366;52.498;13.446;2022-11-25T01:21:08;31.92;;;15.00;;
37517;SDS011;23366;52.498;13.446;2022-11-25T01:23:34;33.22;;;17.48;;
37517;SDS011;23366;52.498;13.446;2022-11-25T01:26:04;35.55;;;18.10;;
37517;SDS011;23366;52.498;13.446;2022-11-25T01:28:31;45.22;;;16.13;;
37517;SDS011;23366;52.498;13.446;2022-11-25T01:30:58;44.42;;;20.30;;
37517;SDS011;23366;52.498;13.446;2022-11-25T01:33:28;43.38;;;17.17;;
37517;SDS011;23366;52.498;13.446;2022-11-25T01:35:56;45.25;;;18.73;;
37517;SDS011;23366;52.498;13.446;2022-11-25T01:38:29;52.17;;;17.58;;
37517;SDS011;23366;52.498;13.446;2022-11-25T01:40:54;40.95;;;18.45;;
37517;SDS011;23366;52.498;13.446;2022-11-25T01:43:20;40.10;;;17.27;;
37517;SDS011;23366;52.498;13.446;2022-11-25T01:45:45;43.75;;;17.20;;
37517;SDS011;23366;52.498;13.446;2022-11-25T01:48:13;41.17;;;15.88;;
37517;SDS011;23366;52.498;13.446;2022-11-25T01:50:44;37.50;;;16.55;;
37517;SDS011;23366;52.498;13.446;2022-11-25T01:53:12;26.70;;;15.10;;
37517;SDS011;23366;52.498;13.446;2022-11-25T01:55:41;41.05;;;16.67;;
37517;SDS011;23366;52.498;13.446;2022-11-25T01:58:11;38.20;;;17.10;;
37517;SDS011;23366;52.498;13.446;2022-11-25T02:00:42;42.80;;;17.30;;
37517;SDS011;23366;52.498;13.446;2022-11-25T02:03:16;40.88;;;16.02;;
37517;SDS011;23366;52.498;13.446;2022-11-25T02:06:03;42.42;;;16.85;;
37517;SDS011;23366;52.498;13.446;2022-11-25T02:09:24;41.15;;;18.65;;
37517;SDS011;23366;52.498;13.446;2022-11-25T02:11:53;55.25;;;18.80;;
37517;SDS011;23366;52.498;13.446;2022-11-25T02:14:20;37.95;;;18.77;;
37517;SDS011;23366;52.498;13.446;2022-11-25T02:16:47;33.80;;;13.02;;
37517;SDS011;23366;52.498;13.446;2022-11-25T02:19:19;41.78;;;16.60;;
37517;SDS011;23366;52.498;13.446;2022-11-25T02:21:51;42.13;;;17.52;;
37517;SDS011;23366;52.498;13.446;2022-11-25T02:24:26;39.25;;;17.25;;
37517;SDS011;23366;52.498;13.446;2022-11-25T02:26:58;36.45;;;14.32;;
37517;SDS011;23366;52.498;13.446;2022-11-25T02:29:24;40.55;;;18.60;;
37517;SDS011;23366;52.498;13.446;2022-11-25T02:31:50;41.30;;;16.90;;
37517;SDS011;23366;52.498;13.446;2022-11-25T02:34:15;37.72;;;16.08;;
37517;SDS011;23366;52.498;13.446;2022-11-25T02:36:41;42.15;;;17.15;;
37517;SDS011;23366;52.498;13.446;2022-11-25T02:39:07;32.35;;;15.32;;
37517;SDS011;23366;52.498;13.446;2022-11-25T02:41:36;37.97;;;16.15;;
37517;SDS011;23366;52.498;13.446;2022-11-25T02:44:13;42.85;;;14.70;;
37517;SDS011;23366;52.498;13.446;2022-11-25T02:46:39;38.53;;;14.98;;
37517;SDS011;23366;52.498;13.446;2022-11-25T02:49:05;29.83;;;14.95;;
37517;SDS011;23366;52.498;13.446;2022-11-25T02:51:31;44.85;;;17.40;;
37517;SDS011;23366;52.498;13.446;2022-11-25T02:53:57;35.63;;;16.85;;
37517;SDS011;23366;52.498;13.446;2022-11-25T02:56:24;41.47;;;15.75;;
37517;SDS011;23366;52.498;13.446;2022-11-25T02:58:52;43.83;;;15.98;;
37517;SDS011;23366;52.498;13.446;2022-11-25T03:01:18;36.95;;;15.82;;
37517;SDS011;23366;52.498;13.446;2022-11-25T03:03:43;44.33;;;18.33;;
37517;SDS011;23366;52.498;13.446;2022-11-25T03:06:09;32.17;;;15.02;;
37517;SDS011;23366;52.498;13.446;2022-11-25T03:08:35;34.30;;;16.23;;
37517;SDS011;23366;52.498;13.446;2022-11-25T03:11:02;32.15;;;15.63;;
37517;SDS011;23366;52.498;13.446;2022-11-25T03:13:28;43.47;;;17.52;;
37517;SDS011;23366;52.498;13.446;2022-11-25T03:15:53;36.38;;;16.55;;
37517;SDS011;23366;52.498;13.446;2022-11-25T03:18:19;51.72;;;17.50;;
37517;SDS011;23366;52.498;13.446;2022-11-25T03:20:44;35.92;;;15.23;;
37517;SDS011;23366;52.498;13.446;2022-11-25T03:23:10;45.60;;;15.95;;
37517;SDS011;23366;52.498;13.446;2022-11-25T03:25:35;36.67;;;15.60;;
37517;SDS011;23366;52.498;13.446;2022-11-25T03:28:01;35.03;;;16.00;;
37517;SDS011;23366;52.498;13.446;2022-11-25T03:30:28;38.67;;;16.38;;
37517;SDS011;23366;52.498;13.446;2022-11-25T03:32:54;39.50;;;16.35;;
37517;SDS011;23366;52.498;13.446;2022-11-25T03:35:19;33.03;;;14.98;;
37517;SDS011;23366;52.498;13.446;2022-11-25T03:37:45;33.40;;;13.85;;
37517;SDS011;23366;52.498;13.446;2022-11-25T03:40:12;34.50;;;16.45;;
37517;SDS011;23366;52.498;13.446;2022-11-25T03:42:39;35.60;;;14.05;;
37517;SDS011;23366;52.498;13.446;2022-11-25T03:45:05;33.35;;;13.88;;
37517;SDS011;23366;52.498;13.446;2022-11-25T03:47:31;30.58;;;13.73;;
37517;SDS011;23366;52.498;13.446;2022-11-25T03:49:57;37.28;;;14.90;;
37517;SDS011;23366;52.498;13.446;2022-11-25T03:52:22;30.33;;;14.45;;
37517;SDS011;23366;52.498;13.446;2022-11-25T03:54:48;40.80;;;17.67;;
37517;SDS011;23366;52.498;13.446;2022-11-25T03:57:14;41.47;;;15.80;;
37517;SDS011;23366;52.498;13.446;2022-11-25T03:59:39;34.00;;;16.35;;
37517;SDS011;23366;52.498;13.446;2022-11-25T04:02:05;45.20;;;15.75;;
37517;SDS011;23366;52.498;13.446;2022-11-25T04:04:30;32.90;;;14.90;;
37517;SDS011;23366;52.498;13.446;2022-11-25T04:06:56;30.58;;;14.50;;
37517;SDS011;23366;52.498;13.446;2022-11-25T04:09:21;36.10;;;15.20;;
37517;SDS011;23366;52.498;13.446;2022-11-25T04:11:47;44.13;;;17.73;;
37517;SDS011;23366;52.498;13.446;2022-11-25T04:14:31;33.88;;;16.30;;
37517;SDS011;23366;52.498;13.446;2022-11-25T04:16:56;41.22;;;17.38;;
37517;SDS011;23366;52.498;13.446;2022-11-25T04:19:22;40.75;;;16.45;;
37517;SDS011;23366;52.498;13.446;2022-11-25T04:21:47;35.10;;;15.90;;
37517;SDS011;23366;52.498;13.446;2022-11-25T04:24:13;37.75;;;14.50;;
37517;SDS011;23366;52.498;13.446;2022-11-25T04:26:39;29.45;;;15.05;;
37517;SDS011;23366;52.498;13.446;2022-11-25T04:29:04;40.53;;;14.63;;
37517;SDS011;23366;52.498;13.446;2022-11-25T04:31:30;31.58;;;14.43;;
37517;SDS011;23366;52.498;13.446;2022-11-25T04:33:56;33.70;;;13.88;;
37517;SDS011;23366;52.498;13.446;2022-11-25T04:36:21;37.67;;;15.80;;
37517;SDS011;23366;52.498;13.446;2022-11-25T04:38:47;35.63;;;14.98;;
37517;SDS011;23366;52.498;13.446;2022-11-25T04:41:12;31.00;;;14.45;;
37517;SDS011;23366;52.498;13.446;2022-11-25T04:43:38;28.80;;;14.48;;
37517;SDS011;23366;52.498;13.446;2022-11-25T04:46:03;38.83;;;16.02;;
37517;SDS011;23366;52.498;13.446;2022-11-25T04:48:29;41.60;;;18.13;;
37517;SDS011;23366;52.498;13.446;2022-11-25T04:50:55;29.88;;;14.93;;
37517;SDS011;23366;52.498;13.446;2022-11-25T04:53:21;31.05;;;14.60;;
37517;SDS011;23366;52.498;13.446;2022-11-25T04:55:46;43.47;;;14.68;;
37517;SDS011;23366;52.498;13.446;2022-11-25T04:58:12;34.33;;;16.55;;
37517;SDS011;23366;52.498;13.446;2022-11-25T05:00:38;30.25;;;17.17;;
37517;SDS011;23366;52.498;13.446;2022-11-25T05:03:03;36.53;;;16.77;;
37517;SDS011;23366;52.498;13.446;2022-11-25T05:05:30;34.15;;;14.95;;
37517;SDS011;23366;52.498;13.446;2022-11-25T05:07:56;33.65;;;14.07;;
37517;SDS011;23366;52.498;13.446;2022-11-25T05:10:21;39.50;;;17.45;;
37517;SDS011;23366;52.498;13.446;2022-11-25T05:12:47;37.45;;;14.05;;
37517;SDS011;23366;52.498;13.446;2022-11-25T05:15:12;30.95;;;15.35;;
37517;SDS011;23366;52.498;13.446;2022-11-25T05:17:38;39.58;;;13.77;;
37517;SDS011;23366;52.498;13.446;2022-11-25T05:20:04;36.17;;;15.55;;
37517;SDS011;23366;52.498;13.446;2022-11-25T05:22:31;32.78;;;14.00;;
37517;SDS011;23366;52.498;13.446;2022-11-25T05:24:57;30.00;;;13.38;;
37517;SDS011;23366;52.498;13.446;2022-11-25T05:27:23;26.00;;;13.32;;
37517;SDS011;23366;52.498;13.446;2022-11-25T05:29:50;28.52;;;13.25;;
37517;SDS011;23366;52.498;13.446;2022-11-25T05:32:15;37.28;;;15.30;;
37517;SDS011;23366;52.498;13.446;2022-11-25T05:34:41;29.08;;;13.93;;
37517;SDS011;23366;52.498;13.446;2022-11-25T05:37:07;34.42;;;14.85;;
37517;SDS011;23366;52.498;13.446;2022-11-25T05:39:33;31.40;;;11.82;;
37517;SDS011;23366;52.498;13.446;2022-11-25T05:41:59;32.35;;;12.82;;
37517;SDS011;23366;52.498;13.446;2022-11-25T05:44:24;30.55;;;14.68;;
37517;SDS011;23366;52.498;13.446;2022-11-25T05:46:50;35.65;;;13.77;;
37517;SDS011;23366;52.498;13.446;2022-11-25T05:49:16;28.83;;;12.77;;
37517;SDS011;23366;52.498;13.446;2022-11-25T05:51:42;36.55;;;14.80;;
37517;SDS011;23366;52.498;13.446;2022-11-25T05:54:08;35.40;;;14.73;;
37517;SDS011;23366;52.498;13.446;2022-11-25T05:56:34;28.25;;;15.77;;
37517;SDS011;23366;52.498;13.446;2022-11-25T05:58:59;27.58;;;13.10;;
37517;SDS011;23366;52.498;13.446;2022-11-25T06:01:25;33.20;;;13.95;;
37517;SDS011;23366;52.498;13.446;2022-11-25T06:03:51;29.75;;;11.65;;
37517;SDS011;23366;52.498;13.446;2022-11-25T06:06:17;28.17;;;14.18;;
37517;SDS011;23366;52.498;13.446;2022-11-25T06:08:43;30.17;;;14.15;;
37517;SDS011;23366;52.498;13.446;2022-11-25T06:11:09;32.33;;;14.90;;
37517;SDS011;23366;52.498;13.446;2022-11-25T06:13:37;35.13;;;13.63;;
37517;SDS011;23366;52.498;13.446;2022-11-25T06:18:34;34.22;;;11.80;;
37517;SDS011;23366;52.498;13.446;2022-11-25T06:21:01;27.77;;;13.27;;
37517;SDS011;23366;52.498;13.446;2022-11-25T06:23:28;21.85;;;11.07;;
37517;SDS011;23366;52.498;13.446;2022-11-25T06:26:01;23.73;;;12.25;;
37517;SDS011;23366;52.498;13.446;2022-11-25T06:28:27;36.17;;;11.52;;
37517;SDS011;23366;52.498;13.446;2022-11-25T06:30:53;26.58;;;12.25;;
37517;SDS011;23366;52.498;13.446;2022-11-25T06:33:18;24.52;;;11.93;;
37517;SDS011;23366;52.498;13.446;2022-11-25T06:35:44;32.63;;;12.98;;
37517;SDS011;23366;52.498;13.446;2022-11-25T06:38:09;32.95;;;14.55;;
37517;SDS011;23366;52.498;13.446;2022-11-25T06:40:35;28.25;;;14.95;;
37517;SDS011;23366;52.498;13.446;2022-11-25T06:43:00;33.83;;;15.77;;
37517;SDS011;23366;52.498;13.446;2022-11-25T06:45:27;31.40;;;12.88;;
37517;SDS011;23366;52.498;13.446;2022-11-25T06:47:53;37.92;;;15.23;;
37517;SDS011;23366;52.498;13.446;2022-11-25T06:50:18;28.08;;;13.13;;
37517;SDS011;23366;52.498;13.446;2022-11-25T06:52:44;32.38;;;13.65;;
37517;SDS011;23366;52.498;13.446;2022-11-25T06:55:09;33.58;;;16.17;;
37517;SDS011;23366;52.498;13.446;2022-11-25T06:57:35;29.85;;;13.18;;
37517;SDS011;23366;52.498;13.446;2022-11-25T07:00:00;31.73;;;14.35;;
37517;SDS011;23366;52.498;13.446;2022-11-25T07:02:26;39.10;;;17.58;;
37517;SDS011;23366;52.498;13.446;2022-11-25T07:04:51;41.60;;;14.75;;
37517;SDS011;23366;52.498;13.446;2022-11-25T07:07:17;25.63;;;14.45;;
37517;SDS011;23366;52.498;13.446;2022-11-25T07:09:43;31.98;;;12.57;;
37517;SDS011;23366;52.498;13.446;2022-11-25T07:12:08;32.03;;;14.18;;
37517;SDS011;23366;52.498;13.446;2022-11-25T07:14:36;26.42;;;13.90;;
37517;SDS011;23366;52.498;13.446;2022-11-25T07:17:01;31.65;;;13.23;;
37517;SDS011;23366;52.498;13.446;2022-11-25T07:19:27;23.80;;;11.35;;
37517;SDS011;23366;52.498;13.446;2022-11-25T07:21:57;29.33;;;12.25;;
37517;SDS011;23366;52.498;13.446;2022-11-25T07:24:23;33.40;;;13.00;;
37517;SDS011;23366;52.498;13.446;2022-11-25T07:26:48;31.63;;;12.60;;
37517;SDS011;23366;52.498;13.446;2022-11-25T07:29:14;28.10;;;13.35;;
37517;SDS011;23366;52.498;13.446;2022-11-25T07:31:41;36.35;;;15.38;;
37517;SDS011;23366;52.498;13.446;2022-11-25T07:34:16;49.95;;;14.32;;
37517;SDS011;23366;52.498;13.446;2022-11-25T07:36:43;36.42;;;14.88;;
37517;SDS011;23366;52.498;13.446;2022-11-25T07:39:11;31.83;;;15.13;;
37517;SDS011;23366;52.498;13.446;2022-11-25T07:41:38;35.35;;;15.15;;
37517;SDS011;23366;52.498;13.446;2022-11-25T07:44:06;40.13;;;19.73;;
37517;SDS011;23366;52.498;13.446;2022-11-25T07:46:34;40.38;;;17.65;;
37517;SDS011;23366;52.498;13.446;2022-11-25T07:49:02;31.75;;;14.30;;
37517;SDS011;23366;52.498;13.446;2022-11-25T07:53:57;32.10;;;14.70;;
37517;SDS011;23366;52.498;13.446;2022-11-25T07:56:24;26.92;;;13.18;;
37517;SDS011;23366;52.498;13.446;2022-11-25T07:58:51;30.98;;;13.35;;
37517;SDS011;23366;52.498;13.446;2022-11-25T08:01:16;24.75;;;11.40;;
37517;SDS011;23366;52.498;13.446;2022-11-25T08:03:52;35.05;;;13.65;;
37517;SDS011;23366;52.498;13.446;2022-11-25T08:06:22;20.52;;;11.30;;
37517;SDS011;23366;52.498;13.446;2022-11-25T08:08:50;27.35;;;12.52;;
37517;SDS011;23366;52.498;13.446;2022-11-25T08:11:24;26.45;;;11.43;;
37517;SDS011;23366;52.498;13.446;2022-11-25T08:16:17;19.70;;;11.88;;
37517;SDS011;23366;52.498;13.446;2022-11-25T08:18:44;22.85;;;11.75;;
37517;SDS011;23366;52.498;13.446;2022-11-25T08:21:10;30.48;;;11.07;;
37517;SDS011;23366;52.498;13.446;2022-11-25T08:23:37;25.55;;;13.65;;
37517;SDS011;23366;52.498;13.446;2022-11-25T08:26:08;27.17;;;12.02;;
37517;SDS011;23366;52.498;13.446;2022-11-25T08:31:52;26.23;;;13.52;;
37517;SDS011;23366;52.498;13.446;2022-11-25T08:34:19;29.08;;;14.30;;
37517;SDS011;23366;52.498;13.446;2022-11-25T08:36:49;26.67;;;13.48;;
37517;SDS011;23366;52.498;13.446;2022-11-25T08:39:15;33.92;;;13.63;;
37517;SDS011;23366;52.498;13.446;2022-11-25T08:41:42;33.58;;;13.50;;
37517;SDS011;23366;52.498;13.446;2022-11-25T08:44:07;27.08;;;11.55;;
37517;SDS011;23366;52.498;13.446;2022-11-25T08:46:36;21.52;;;10.82;;
37517;SDS011;23366;52.498;13.446;2022-11-25T08:49:03;23.52;;;11.68;;
37517;SDS011;23366;52.498;13.446;2022-11-25T08:51:31;30.45;;;12.40;;
37517;SDS011;23366;52.498;13.446;2022-11-25T08:53:57;31.75;;;13.05;;
37517;SDS011;23366;52.498;13.446;2022-11-25T08:56:23;33.28;;;12.57;;
37517;SDS011;23366;52.498;13.446;2022-11-25T08:58:49;44.13;;;14.73;;
37517;SDS011;23366;52.498;13.446;2022-11-25T09:01:15;29.52;;;13.65;;
37517;SDS011;23366;52.498;13.446;2022-11-25T09:03:43;28.70;;;12.55;;
37517;SDS011;23366;52.498;13.446;2022-11-25T09:06:11;28.60;;;13.65;;
37517;SDS011;23366;52.498;13.446;2022-11-25T09:08:42;30.90;;;13.75;;
37517;SDS011;23366;52.498;13.446;2022-11-25T09:11:08;26.65;;;11.95;;
37517;SDS011;23366;52.498;13.446;2022-11-25T09:13:34;32.80;;;14.23;;
37517;SDS011;23366;52.498;13.446;2022-11-25T09:16:00;30.77;;;12.23;;
37517;SDS011;23366;52.498;13.446;2022-11-25T09:18:26;28.50;;;13.90;;
37517;SDS011;23366;52.498;13.446;2022-11-25T09:20:54;26.23;;;12.43;;
37517;SDS011;23366;52.498;13.446;2022-11-25T09:23:20;26.40;;;14.38;;
37517;SDS011;23366;52.498;13.446;2022-11-25T09:25:56;26.83;;;12.80;;
37517;SDS011;23366;52.498;13.446;2022-11-25T09:28:23;24.08;;;10.73;;
37517;SDS011;23366;52.498;13.446;2022-11-25T09:30:49;19.55;;;9.98;;
37517;SDS011;23366;52.498;13.446;2022-11-25T09:33:16;20.80;;;10.80;;
37517;SDS011;23366;52.498;13.446;2022-11-25T09:35:42;21.02;;;11.18;;
37517;SDS011;23366;52.498;13.446;2022-11-25T09:38:08;22.98;;;10.60;;
37517;SDS011;23366;52.498;13.446;2022-11-25T09:43:22;22.20;;;11.57;;
37517;SDS011;23366;52.498;13.446;2022-11-25T09:46:25;20.42;;;9.90;;
37517;SDS011;23366;52.498;13.446;2022-11-25T09:52:12;20.70;;;10.18;;
37517;SDS011;23366;52.498;13.446;2022-11-25T09:57:55;19.23;;;9.95;;
37517;SDS011;23366;52.498;13.446;2022-11-25T10:00:37;19.17;;;10.85;;
37517;SDS011;23366;52.498;13.446;2022-11-25T10:05:38;23.10;;;11.13;;
37517;SDS011;23366;52.498;13.446;2022-11-25T10:08:26;29.48;;;12.30;;
37517;SDS011;23366;52.498;13.446;2022-11-25T10:11:16;23.15;;;11.68;;
37517;SDS011;23366;52.498;13.446;2022-11-25T10:14:00;27.73;;;11.50;;
37517;SDS011;23366;52.498;13.446;2022-11-25T10:19:15;30.60;;;14.15;;
37517;SDS011;23366;52.498;13.446;2022-11-25T10:21:47;33.53;;;13.73;;
37517;SDS011;23366;52.498;13.446;2022-11-25T10:24:13;32.00;;;13.10;;
37517;SDS011;23366;52.498;13.446;2022-11-25T10:26:42;34.33;;;15.35;;
37517;SDS011;23366;52.498;13.446;2022-11-25T10:31:38;27.90;;;12.35;;
37517;SDS011;23366;52.498;13.446;2022-11-25T10:34:11;30.95;;;13.63;;
37517;SDS011;23366;52.498;13.446;2022-11-25T10:36:48;27.20;;;14.63;;
37517;SDS011;23366;52.498;13.446;2022-11-25T10:39:18;24.65;;;12.48;;
37517;SDS011;23366;52.498;13.446;2022-11-25T10:41:54;21.83;;;12.23;;
37517;SDS011;23366;52.498;13.446;2022-11-25T10:44:30;33.55;;;15.25;;
37517;SDS011;23366;52.498;13.446;2022-11-25T10:47:04;27.98;;;12.35;;
37517;SDS011;23366;52.498;13.446;2022-11-25T10:52:50;36.85;;;13.40;;
37517;SDS011;23366;52.498;13.446;2022-11-25T10:55:21;22.63;;;12.40;;
37517;SDS011;23366;52.498;13.446;2022-11-25T10:57:49;29.20;;;12.73;;
37517;SDS011;23366;52.498;13.446;2022-11-25T11:00:35;29.27;;;14.02;;
37517;SDS011;23366;52.498;13.446;2022-11-25T11:03:19;25.65;;;12.60;;
37517;SDS011;23366;52.498;13.446;2022-11-25T11:05:50;18.70;;;11.45;;
37517;SDS011;23366;52.498;13.446;2022-11-25T11:08:24;35.40;;;14.73;;
37517;SDS011;23366;52.498;13.446;2022-11-25T11:13:40;28.13;;;13.20;;
37517;SDS011;23366;52.498;13.446;2022-11-25T11:18:55;36.63;;;15.02;;
37517;SDS011;23366;52.498;13.446;2022-11-25T11:21:29;32.15;;;14.82;;
37517;SDS011;23366;52.498;13.446;2022-11-25T11:23:59;26.60;;;15.38;;
37517;SDS011;23366;52.498;13.446;2022-11-25T11:26:29;31.58;;;14.95;;
37517;SDS011;23366;52.498;13.446;2022-11-25T11:29:00;26.63;;;14.48;;
37517;SDS011;23366;52.498;13.446;2022-11-25T11:31:33;36.47;;;14.75;;
37517;SDS011;23366;52.498;13.446;2022-11-25T11:34:07;26.75;;;11.82;;
37517;SDS011;23366;52.498;13.446;2022-11-25T11:39:51;26.95;;;13.35;;
37517;SDS011;23366;52.498;13.446;2022-11-25T11:48:01;22.52;;;10.25;;
37517;SDS011;23366;52.498;13.446;2022-11-25T11:50:38;27.45;;;13.35;;
37517;SDS011;23366;52.498;13.446;2022-11-25T11:53:28;25.38;;;12.55;;
37517;SDS011;23366;52.498;13.446;2022-11-25T11:56:11;24.00;;;12.30;;
37517;SDS011;23366;52.498;13.446;2022-11-25T12:01:30;20.73;;;11.48;;
37517;SDS011;23366;52.498;13.446;2022-11-25T12:06:58;31.55;;;13.55;;
37517;SDS011;23366;52.498;13.446;2022-11-25T12:09:38;32.00;;;13.95;;
37517;SDS011;23366;52.498;13.446;2022-11-25T12:12:12;31.55;;;14.32;;
37517;SDS011;23366;52.498;13.446;2022-11-25T12:14:42;30.38;;;13.65;;
37517;SDS011;23366;52.498;13.446;2022-11-25T12:17:16;27.98;;;14.15;;
37517;SDS011;23366;52.498;13.446;2022-11-25T12:22:26;29.13;;;14.57;;
37517;SDS011;23366;52.498;13.446;2022-11-25T12:25:09;31.92;;;15.73;;
37517;SDS011;23366;52.498;13.446;2022-11-25T12:27:46;39.30;;;15.25;;
37517;SDS011;23366;52.498;13.446;2022-11-25T12:30:17;39.05;;;14.90;;
37517;SDS011;23366;52.498;13.446;2022-11-25T12:33:11;34.20;;;14.68;;
37517;SDS011;23366;52.498;13.446;2022-11-25T12:36:03;27.73;;;14.57;;
37517;SDS011;23366;52.498;13.446;2022-11-25T12:38:37;29.58;;;14.55;;
37517;SDS011;23366;52.498;13.446;2022-11-25T12:46:27;36.50;;;16.30;;
37517;SDS011;23366;52.498;13.446;2022-11-25T12:48:57;30.75;;;13.63;;
37517;SDS011;23366;52.498;13.446;2022-11-25T12:51:48;29.15;;;14.88;;
37517;SDS011;23366;52.498;13.446;2022-11-25T12:57:45;30.58;;;11.68;;
37517;SDS011;23366;52.498;13.446;2022-11-25T13:11:58;25.80;;;11.20;;
37517;SDS011;23366;52.498;13.446;2022-11-25T13:17:38;29.07;;;12.00;;
37517;SDS011;23366;52.498;13.446;2022-11-25T13:25:29;22.48;;;11.80;;
37517;SDS011;23366;52.498;13.446;2022-11-25T13:28:00;25.70;;;11.60;;
37517;SDS011;23366;52.498;13.446;2022-11-25T13:32:56;28.38;;;11.57;;
37517;SDS011;23366;52.498;13.446;2022-11-25T13:37:51;32.90;;;13.57;;
37517;SDS011;23366;52.498;13.446;2022-11-25T13:42:52;19.25;;;9.73;;
37517;SDS011;23366;52.498;13.446;2022-11-25T13:45:29;25.45;;;11.63;;
37517;SDS011;23366;52.498;13.446;2022-11-25T13:48:12;25.23;;;13.40;;
37517;SDS011;23366;52.498;13.446;2022-11-25T13:50:47;28.17;;;11.13;;
37517;SDS011;23366;52.498;13.446;2022-11-25T13:53:36;21.05;;;10.43;;
37517;SDS011;23366;52.498;13.446;2022-11-25T13:56:12;21.20;;;8.90;;
37517;SDS011;23366;52.498;13.446;2022-11-25T14:01:35;22.58;;;9.90;;
37517;SDS011;23366;52.498;13.446;2022-11-25T14:04:07;27.17;;;12.77;;
37517;SDS011;23366;52.498;13.446;2022-11-25T14:07:00;23.98;;;10.57;;
37517;SDS011;23366;52.498;13.446;2022-11-25T14:09:55;24.77;;;12.20;;
37517;SDS011;23366;52.498;13.446;2022-11-25T14:24:46;28.30;;;15.23;;
37517;SDS011;23366;52.498;13.446;2022-11-25T14:26:49;24.42;;;12.27;;
37517;SDS011;23366;52.498;13.446;2022-11-25T14:29:18;18.90;;;10.00;;
37517;SDS011;23366;52.498;13.446;2022-11-25T14:31:52;23.35;;;11.40;;
37517;SDS011;23366;52.498;13.446;2022-11-25T14:36:58;22.20;;;11.98;;
37517;SDS011;23366;52.498;13.446;2022-11-25T14:39:32;30.23;;;12.77;;
37517;SDS011;23366;52.498;13.446;2022-11-25T14:42:09;20.33;;;10.95;;
37517;SDS011;23366;52.498;13.446;2022-11-25T14:44:48;22.85;;;11.82;;
37517;SDS011;23366;52.498;13.446;2022-11-25T14:47:22;27.08;;;12.65;;
37517;SDS011;23366;52.498;13.446;2022-11-25T14:49:52;20.60;;;10.57;;
37517;SDS011;23366;52.498;13.446;2022-11-25T14:52:21;19.63;;;10.50;;
37517;SDS011;23366;52.498;13.446;2022-11-25T14:54:51;22.27;;;10.55;;
37517;SDS011;23366;52.498;13.446;2022-11-25T14:57:23;28.05;;;11.38;;
37517;SDS011;23366;52.498;13.446;2022-11-25T14:59:51;24.95;;;12.13;;
37517;SDS011;23366;52.498;13.446;2022-11-25T15:02:22;24.60;;;11.45;;
37517;SDS011;23366;52.498;13.446;2022-11-25T15:04:52;23.88;;;13.23;;
37517;SDS011;23366;52.498;13.446;2022-11-25T15:07:24;23.55;;;9.77;;
37517;SDS011;23366;52.498;13.446;2022-11-25T15:09:52;24.33;;;13.05;;
37517;SDS011;23366;52.498;13.446;2022-11-25T15:15:21;24.95;;;12.68;;
37517;SDS011;23366;52.498;13.446;2022-11-25T15:17:49;25.92;;;11.27;;
37517;SDS011;23366;52.498;13.446;2022-11-25T15:26:39;24.02;;;12.00;;
37517;SDS011;23366;52.498;13.446;2022-11-25T15:29:03;29.92;;;11.50;;
37517;SDS011;23366;52.498;13.446;2022-11-25T15:31:35;25.38;;;11.55;;
37517;SDS011;23366;52.498;13.446;2022-11-25T15:34:04;25.08;;;12.55;;
37517;SDS011;23366;52.498;13.446;2022-11-25T15:36:31;22.23;;;11.40;;
37517;SDS011;23366;52.498;13.446;2022-11-25T15:41:47;31.85;;;14.13;;
37517;SDS011;23366;52.498;13.446;2022-11-25T15:47:59;25.52;;;12.48;;
37517;SDS011;23366;52.498;13.446;2022-11-25T15:50:26;28.80;;;12.90;;
37517;SDS011;23366;52.498;13.446;2022-11-25T15:52:54;34.78;;;13.93;;
37517;SDS011;23366;52.498;13.446;2022-11-25T15:55:33;31.50;;;14.02;;
37517;SDS011;23366;52.498;13.446;2022-11-25T15:58:05;25.83;;;12.75;;
37517;SDS011;23366;52.498;13.446;2022-11-25T16:00:37;25.80;;;13.88;;
37517;SDS011;23366;52.498;13.446;2022-11-25T16:03:16;32.50;;;12.93;;
37517;SDS011;23366;52.498;13.446;2022-11-25T16:05:53;26.75;;;12.85;;
37517;SDS011;23366;52.498;13.446;2022-11-25T16:11:13;31.23;;;13.93;;
37517;SDS011;23366;52.498;13.446;2022-11-25T16:13:43;28.08;;;13.25;;
37517;SDS011;23366;52.498;13.446;2022-11-25T16:16:11;26.88;;;10.98;;
37517;SDS011;23366;52.498;13.446;2022-11-25T16:24:08;31.38;;;14.60;;
37517;SDS011;23366;52.498;13.446;2022-11-25T16:26:48;26.40;;;13.98;;
37517;SDS011;23366;52.498;13.446;2022-11-25T16:29:36;29.35;;;13.60;;
37517;SDS011;23366;52.498;13.446;2022-11-25T16:32:26;27.30;;;15.05;;
37517;SDS011;23366;52.498;13.446;2022-11-25T16:34:54;27.55;;;13.05;;
37517;SDS011;23366;52.498;13.446;2022-11-25T16:37:22;27.50;;;13.60;;